sensor_id;sensor_type;location;lat;lon;timestamp;P1;durP1;ratioP1;P2;durP2;ratioP2
61741;SDS011;47650;49.848;9.620;2022-10-31T00:00:58;108.45;;;10.90;;
61741;SDS011;47650;49.848;9.620;2022-10-31T00:03:24;31.38;;;8.15;;
61741;SDS011;47650;49.848;9.620;2022-10-31T00:05:51;26.38;;;7.00;;
61741;SDS011;47650;49.848;9.620;2022-10-31T00:08:17;49.08;;;9.32;;
61741;SDS011;47650;49.848;9.620;2022-10-31T00:10:43;49.22;;;8.82;;
61741;SDS011;47650;49.848;9.620;2022-10-31T00:13:11;38.78;;;9.18;;
61741;SDS011;47650;49.848;9.620;2022-10-31T00:15:39;54.45;;;10.73;;
61741;SDS011;47650;49.848;9.620;2022-10-31T00:18:06;8.13;;;6.30;;
61741;SDS011;47650;49.848;9.620;2022-10-31T00:20:33;22.00;;;7.00;;
61741;SDS011;47650;49.848;9.620;2022-10-31T00:22:59;18.75;;;5.32;;
61741;SDS011;47650;49.848;9.620;2022-10-31T00:25:26;22.63;;;5.05;;
61741;SDS011;47650;49.848;9.620;2022-10-31T00:27:53;5.93;;;5.30;;
61741;SDS011;47650;49.848;9.620;2022-10-31T00:30:20;25.17;;;6.38;;
61741;SDS011;47650;49.848;9.620;2022-10-31T00:32:45;19.80;;;6.45;;
61741;SDS011;47650;49.848;9.620;2022-10-31T00:35:10;12.98;;;5.00;;
61741;SDS011;47650;49.848;9.620;2022-10-31T00:37:37;13.57;;;6.18;;
61741;SDS011;47650;49.848;9.620;2022-10-31T00:40:02;33.75;;;7.55;;
61741;SDS011;47650;49.848;9.620;2022-10-31T00:42:30;28.05;;;7.43;;
61741;SDS011;47650;49.848;9.620;2022-10-31T00:44:56;31.25;;;8.23;;
61741;SDS011;47650;49.848;9.620;2022-10-31T00:47:22;20.83;;;6.47;;
61741;SDS011;47650;49.848;9.620;2022-10-31T00:49:47;45.13;;;9.38;;
61741;SDS011;47650;49.848;9.620;2022-10-31T00:52:15;83.35;;;12.65;;
61741;SDS011;47650;49.848;9.620;2022-10-31T00:54:40;151.02;;;21.25;;
61741;SDS011;47650;49.848;9.620;2022-10-31T00:57:05;83.00;;;17.70;;
61741;SDS011;47650;49.848;9.620;2022-10-31T00:59:30;70.18;;;14.48;;
61741;SDS011;47650;49.848;9.620;2022-10-31T01:01:56;57.72;;;10.15;;
61741;SDS011;47650;49.848;9.620;2022-10-31T01:04:21;63.83;;;8.70;;
61741;SDS011;47650;49.848;9.620;2022-10-31T01:06:46;60.83;;;8.70;;
61741;SDS011;47650;49.848;9.620;2022-10-31T01:09:12;45.20;;;7.97;;
61741;SDS011;47650;49.848;9.620;2022-10-31T01:11:37;109.97;;;10.57;;
61741;SDS011;47650;49.848;9.620;2022-10-31T01:14:02;74.80;;;7.95;;
61741;SDS011;47650;49.848;9.620;2022-10-31T01:16:28;25.75;;;6.68;;
61741;SDS011;47650;49.848;9.620;2022-10-31T01:18:54;53.17;;;7.15;;
61741;SDS011;47650;49.848;9.620;2022-10-31T01:21:22;25.77;;;7.20;;
61741;SDS011;47650;49.848;9.620;2022-10-31T01:23:50;207.07;;;17.00;;
61741;SDS011;47650;49.848;9.620;2022-10-31T01:26:20;71.93;;;8.43;;
61741;SDS011;47650;49.848;9.620;2022-10-31T01:28:48;126.25;;;11.00;;
61741;SDS011;47650;49.848;9.620;2022-10-31T01:31:19;57.75;;;7.85;;
61741;SDS011;47650;49.848;9.620;2022-10-31T01:33:53;93.13;;;8.48;;
61741;SDS011;47650;49.848;9.620;2022-10-31T01:36:26;65.32;;;8.30;;
61741;SDS011;47650;49.848;9.620;2022-10-31T01:38:57;49.97;;;7.15;;
61741;SDS011;47650;49.848;9.620;2022-10-31T01:41:29;144.63;;;11.77;;
61741;SDS011;47650;49.848;9.620;2022-10-31T01:43:58;29.02;;;6.10;;
61741;SDS011;47650;49.848;9.620;2022-10-31T01:46:43;27.40;;;7.38;;
61741;SDS011;47650;49.848;9.620;2022-10-31T01:49:15;37.33;;;7.80;;
61741;SDS011;47650;49.848;9.620;2022-10-31T01:51:50;71.15;;;7.20;;
61741;SDS011;47650;49.848;9.620;2022-10-31T01:54:20;49.67;;;6.47;;
61741;SDS011;47650;49.848;9.620;2022-10-31T01:56:48;75.75;;;6.90;;
61741;SDS011;47650;49.848;9.620;2022-10-31T01:59:17;39.88;;;6.53;;
61741;SDS011;47650;49.848;9.620;2022-10-31T02:01:45;27.67;;;5.90;;
61741;SDS011;47650;49.848;9.620;2022-10-31T02:04:13;68.85;;;7.55;;
61741;SDS011;47650;49.848;9.620;2022-10-31T02:06:44;66.90;;;8.18;;
61741;SDS011;47650;49.848;9.620;2022-10-31T02:09:14;49.10;;;7.00;;
61741;SDS011;47650;49.848;9.620;2022-10-31T02:11:40;44.22;;;6.88;;
61741;SDS011;47650;49.848;9.620;2022-10-31T02:14:09;140.98;;;10.45;;
61741;SDS011;47650;49.848;9.620;2022-10-31T02:16:35;217.98;;;18.50;;
61741;SDS011;47650;49.848;9.620;2022-10-31T02:19:00;157.15;;;10.30;;
61741;SDS011;47650;49.848;9.620;2022-10-31T02:21:33;85.90;;;8.60;;
61741;SDS011;47650;49.848;9.620;2022-10-31T02:24:15;81.63;;;11.75;;
61741;SDS011;47650;49.848;9.620;2022-10-31T02:26:58;122.50;;;19.65;;
61741;SDS011;47650;49.848;9.620;2022-10-31T02:37:48;158.60;;;11.85;;
61741;SDS011;47650;49.848;9.620;2022-10-31T02:40:23;127.57;;;8.85;;
61741;SDS011;47650;49.848;9.620;2022-10-31T02:43:06;63.30;;;8.10;;
61741;SDS011;47650;49.848;9.620;2022-10-31T02:45:48;50.50;;;8.82;;
61741;SDS011;47650;49.848;9.620;2022-10-31T02:48:24;59.17;;;8.15;;
61741;SDS011;47650;49.848;9.620;2022-10-31T02:50:56;63.85;;;7.35;;
61741;SDS011;47650;49.848;9.620;2022-10-31T02:53:24;77.30;;;7.32;;
61741;SDS011;47650;49.848;9.620;2022-10-31T02:55:58;71.00;;;7.78;;
61741;SDS011;47650;49.848;9.620;2022-10-31T02:58:27;62.08;;;6.40;;
61741;SDS011;47650;49.848;9.620;2022-10-31T03:01:14;79.45;;;9.02;;
61741;SDS011;47650;49.848;9.620;2022-10-31T03:04:04;81.38;;;8.93;;
61741;SDS011;47650;49.848;9.620;2022-10-31T03:09:42;118.03;;;10.43;;
61741;SDS011;47650;49.848;9.620;2022-10-31T03:12:15;156.80;;;12.40;;
61741;SDS011;47650;49.848;9.620;2022-10-31T03:17:37;84.45;;;8.40;;
61741;SDS011;47650;49.848;9.620;2022-10-31T03:20:13;81.95;;;8.40;;
61741;SDS011;47650;49.848;9.620;2022-10-31T03:22:48;106.43;;;7.80;;
61741;SDS011;47650;49.848;9.620;2022-10-31T03:25:13;38.88;;;5.88;;
61741;SDS011;47650;49.848;9.620;2022-10-31T03:27:41;38.10;;;5.57;;
61741;SDS011;47650;49.848;9.620;2022-10-31T03:30:10;22.30;;;5.03;;
61741;SDS011;47650;49.848;9.620;2022-10-31T03:32:48;121.03;;;11.45;;
61741;SDS011;47650;49.848;9.620;2022-10-31T03:35:17;56.13;;;5.85;;
61741;SDS011;47650;49.848;9.620;2022-10-31T03:37:46;16.05;;;4.57;;
61741;SDS011;47650;49.848;9.620;2022-10-31T03:40:13;50.92;;;6.35;;
61741;SDS011;47650;49.848;9.620;2022-10-31T03:42:41;25.38;;;5.07;;
61741;SDS011;47650;49.848;9.620;2022-10-31T03:45:12;17.55;;;5.03;;
61741;SDS011;47650;49.848;9.620;2022-10-31T03:47:41;30.65;;;5.03;;
61741;SDS011;47650;49.848;9.620;2022-10-31T03:50:08;59.40;;;7.13;;
61741;SDS011;47650;49.848;9.620;2022-10-31T03:55:17;74.78;;;6.07;;
61741;SDS011;47650;49.848;9.620;2022-10-31T03:58:10;122.30;;;9.10;;
61741;SDS011;47650;49.848;9.620;2022-10-31T04:00:40;55.53;;;6.88;;
61741;SDS011;47650;49.848;9.620;2022-10-31T04:03:10;45.35;;;6.55;;
61741;SDS011;47650;49.848;9.620;2022-10-31T04:05:39;51.53;;;6.30;;
61741;SDS011;47650;49.848;9.620;2022-10-31T04:08:10;62.00;;;7.30;;
61741;SDS011;47650;49.848;9.620;2022-10-31T04:10:41;38.50;;;6.20;;
61741;SDS011;47650;49.848;9.620;2022-10-31T04:13:11;117.10;;;8.85;;
61741;SDS011;47650;49.848;9.620;2022-10-31T04:15:47;29.75;;;5.70;;
61741;SDS011;47650;49.848;9.620;2022-10-31T04:18:16;123.70;;;10.80;;
61741;SDS011;47650;49.848;9.620;2022-10-31T04:20:44;74.00;;;6.72;;
61741;SDS011;47650;49.848;9.620;2022-10-31T04:23:18;60.58;;;6.75;;
61741;SDS011;47650;49.848;9.620;2022-10-31T04:25:47;42.80;;;6.60;;
61741;SDS011;47650;49.848;9.620;2022-10-31T04:28:13;34.92;;;5.80;;
61741;SDS011;47650;49.848;9.620;2022-10-31T04:30:38;126.30;;;9.85;;
61741;SDS011;47650;49.848;9.620;2022-10-31T04:33:03;31.25;;;6.30;;
61741;SDS011;47650;49.848;9.620;2022-10-31T04:35:28;84.90;;;7.25;;
61741;SDS011;47650;49.848;9.620;2022-10-31T04:37:54;60.55;;;6.35;;
61741;SDS011;47650;49.848;9.620;2022-10-31T04:40:19;51.08;;;7.78;;
61741;SDS011;47650;49.848;9.620;2022-10-31T04:42:44;41.78;;;9.60;;
61741;SDS011;47650;49.848;9.620;2022-10-31T04:45:10;41.42;;;6.35;;
61741;SDS011;47650;49.848;9.620;2022-10-31T04:47:35;61.03;;;6.10;;
61741;SDS011;47650;49.848;9.620;2022-10-31T04:50:01;97.10;;;8.05;;
61741;SDS011;47650;49.848;9.620;2022-10-31T04:52:26;64.75;;;6.43;;
61741;SDS011;47650;49.848;9.620;2022-10-31T04:54:53;114.80;;;7.43;;
61741;SDS011;47650;49.848;9.620;2022-10-31T04:57:18;87.25;;;6.80;;
61741;SDS011;47650;49.848;9.620;2022-10-31T04:59:51;72.13;;;6.25;;
61741;SDS011;47650;49.848;9.620;2022-10-31T05:02:17;89.95;;;6.70;;
61741;SDS011;47650;49.848;9.620;2022-10-31T05:04:42;139.57;;;8.95;;
61741;SDS011;47650;49.848;9.620;2022-10-31T05:07:07;89.90;;;7.03;;
61741;SDS011;47650;49.848;9.620;2022-10-31T05:09:34;131.55;;;8.20;;
61741;SDS011;47650;49.848;9.620;2022-10-31T05:11:59;85.75;;;7.85;;
61741;SDS011;47650;49.848;9.620;2022-10-31T05:14:24;144.80;;;9.55;;
61741;SDS011;47650;49.848;9.620;2022-10-31T05:16:50;132.68;;;8.45;;
61741;SDS011;47650;49.848;9.620;2022-10-31T05:19:15;97.22;;;7.55;;
61741;SDS011;47650;49.848;9.620;2022-10-31T05:21:40;49.65;;;5.72;;
61741;SDS011;47650;49.848;9.620;2022-10-31T05:24:05;74.45;;;7.75;;
61741;SDS011;47650;49.848;9.620;2022-10-31T05:26:34;97.53;;;10.45;;
61741;SDS011;47650;49.848;9.620;2022-10-31T05:29:00;104.90;;;10.90;;
61741;SDS011;47650;49.848;9.620;2022-10-31T05:31:26;111.47;;;9.15;;
61741;SDS011;47650;49.848;9.620;2022-10-31T05:33:52;87.43;;;5.60;;
61741;SDS011;47650;49.848;9.620;2022-10-31T05:36:17;48.13;;;4.72;;
61741;SDS011;47650;49.848;9.620;2022-10-31T05:38:43;88.03;;;5.95;;
61741;SDS011;47650;49.848;9.620;2022-10-31T05:41:08;150.32;;;8.23;;
61741;SDS011;47650;49.848;9.620;2022-10-31T05:43:35;66.10;;;6.15;;
61741;SDS011;47650;49.848;9.620;2022-10-31T05:46:02;101.97;;;6.80;;
61741;SDS011;47650;49.848;9.620;2022-10-31T05:48:27;248.48;;;12.82;;
61741;SDS011;47650;49.848;9.620;2022-10-31T05:50:52;176.98;;;9.70;;
61741;SDS011;47650;49.848;9.620;2022-10-31T05:53:18;267.13;;;10.70;;
61741;SDS011;47650;49.848;9.620;2022-10-31T05:55:49;345.88;;;13.60;;
61741;SDS011;47650;49.848;9.620;2022-10-31T05:58:14;271.77;;;10.27;;
61741;SDS011;47650;49.848;9.620;2022-10-31T06:00:39;214.32;;;9.20;;
61741;SDS011;47650;49.848;9.620;2022-10-31T06:03:06;230.95;;;8.90;;
61741;SDS011;47650;49.848;9.620;2022-10-31T06:05:32;179.48;;;8.00;;
61741;SDS011;47650;49.848;9.620;2022-10-31T06:07:58;145.48;;;7.47;;
61741;SDS011;47650;49.848;9.620;2022-10-31T06:10:24;190.50;;;9.02;;
61741;SDS011;47650;49.848;9.620;2022-10-31T06:12:49;120.55;;;7.28;;
61741;SDS011;47650;49.848;9.620;2022-10-31T06:15:15;110.95;;;8.68;;
61741;SDS011;47650;49.848;9.620;2022-10-31T06:17:42;73.10;;;4.72;;
61741;SDS011;47650;49.848;9.620;2022-10-31T06:20:07;67.43;;;5.25;;
61741;SDS011;47650;49.848;9.620;2022-10-31T06:22:33;31.83;;;4.22;;
61741;SDS011;47650;49.848;9.620;2022-10-31T06:24:58;52.90;;;5.30;;
61741;SDS011;47650;49.848;9.620;2022-10-31T06:27:27;37.65;;;4.57;;
61741;SDS011;47650;49.848;9.620;2022-10-31T06:29:53;38.90;;;4.50;;
61741;SDS011;47650;49.848;9.620;2022-10-31T06:32:18;17.85;;;3.80;;
61741;SDS011;47650;49.848;9.620;2022-10-31T06:34:44;26.88;;;3.60;;
61741;SDS011;47650;49.848;9.620;2022-10-31T06:37:11;22.42;;;3.72;;
61741;SDS011;47650;49.848;9.620;2022-10-31T06:39:37;7.43;;;3.38;;
61741;SDS011;47650;49.848;9.620;2022-10-31T06:42:03;7.57;;;4.00;;
61741;SDS011;47650;49.848;9.620;2022-10-31T06:44:31;6.35;;;3.60;;
61741;SDS011;47650;49.848;9.620;2022-10-31T06:46:56;6.97;;;4.00;;
61741;SDS011;47650;49.848;9.620;2022-10-31T06:49:29;6.10;;;3.90;;
61741;SDS011;47650;49.848;9.620;2022-10-31T06:51:54;23.63;;;3.88;;
61741;SDS011;47650;49.848;9.620;2022-10-31T06:54:20;14.82;;;3.38;;
61741;SDS011;47650;49.848;9.620;2022-10-31T06:56:47;30.05;;;5.25;;
61741;SDS011;47650;49.848;9.620;2022-10-31T06:59:14;16.33;;;3.28;;
61741;SDS011;47650;49.848;9.620;2022-10-31T07:01:48;21.77;;;3.30;;
61741;SDS011;47650;49.848;9.620;2022-10-31T07:04:13;24.00;;;6.72;;
61741;SDS011;47650;49.848;9.620;2022-10-31T07:06:38;15.20;;;4.10;;
61741;SDS011;47650;49.848;9.620;2022-10-31T07:09:03;14.00;;;3.78;;
61741;SDS011;47650;49.848;9.620;2022-10-31T07:11:30;25.63;;;3.92;;
61741;SDS011;47650;49.848;9.620;2022-10-31T07:13:55;5.82;;;3.17;;
61741;SDS011;47650;49.848;9.620;2022-10-31T07:16:21;10.63;;;5.65;;
61741;SDS011;47650;49.848;9.620;2022-10-31T07:18:46;26.42;;;4.55;;
61741;SDS011;47650;49.848;9.620;2022-10-31T07:21:11;17.17;;;4.03;;
61741;SDS011;47650;49.848;9.620;2022-10-31T07:23:37;27.80;;;5.15;;
61741;SDS011;47650;49.848;9.620;2022-10-31T07:26:05;31.98;;;5.07;;
61741;SDS011;47650;49.848;9.620;2022-10-31T07:28:31;88.85;;;6.55;;
61741;SDS011;47650;49.848;9.620;2022-10-31T07:30:57;91.07;;;6.60;;
61741;SDS011;47650;49.848;9.620;2022-10-31T07:33:23;29.23;;;4.40;;
61741;SDS011;47650;49.848;9.620;2022-10-31T07:35:50;26.25;;;4.40;;
61741;SDS011;47650;49.848;9.620;2022-10-31T07:38:16;16.02;;;4.28;;
61741;SDS011;47650;49.848;9.620;2022-10-31T07:40:42;23.67;;;4.93;;
61741;SDS011;47650;49.848;9.620;2022-10-31T07:43:07;76.85;;;9.07;;
61741;SDS011;47650;49.848;9.620;2022-10-31T07:45:36;45.13;;;4.72;;
61741;SDS011;47650;49.848;9.620;2022-10-31T07:48:01;28.13;;;4.20;;
61741;SDS011;47650;49.848;9.620;2022-10-31T07:50:30;17.85;;;4.38;;
61741;SDS011;47650;49.848;9.620;2022-10-31T07:53:07;29.52;;;5.68;;
61741;SDS011;47650;49.848;9.620;2022-10-31T07:55:33;33.97;;;5.07;;
61741;SDS011;47650;49.848;9.620;2022-10-31T07:58:20;51.15;;;5.60;;
61741;SDS011;47650;49.848;9.620;2022-10-31T08:00:46;18.35;;;4.90;;
61741;SDS011;47650;49.848;9.620;2022-10-31T08:03:15;27.45;;;5.80;;
61741;SDS011;47650;49.848;9.620;2022-10-31T08:05:42;33.17;;;6.25;;
61741;SDS011;47650;49.848;9.620;2022-10-31T08:08:09;57.33;;;6.25;;
61741;SDS011;47650;49.848;9.620;2022-10-31T08:10:36;44.92;;;7.15;;
61741;SDS011;47650;49.848;9.620;2022-10-31T08:13:12;31.67;;;6.20;;
61741;SDS011;47650;49.848;9.620;2022-10-31T08:15:38;41.42;;;7.03;;
61741;SDS011;47650;49.848;9.620;2022-10-31T08:18:06;32.55;;;6.82;;
61741;SDS011;47650;49.848;9.620;2022-10-31T08:20:37;36.53;;;6.65;;
61741;SDS011;47650;49.848;9.620;2022-10-31T08:23:03;32.17;;;7.15;;
61741;SDS011;47650;49.848;9.620;2022-10-31T08:25:30;31.95;;;5.97;;
61741;SDS011;47650;49.848;9.620;2022-10-31T08:27:57;37.60;;;6.93;;
61741;SDS011;47650;49.848;9.620;2022-10-31T08:30:26;16.58;;;6.15;;
61741;SDS011;47650;49.848;9.620;2022-10-31T08:33:14;21.92;;;6.80;;
61741;SDS011;47650;49.848;9.620;2022-10-31T08:35:41;24.08;;;6.53;;
61741;SDS011;47650;49.848;9.620;2022-10-31T08:38:09;30.90;;;6.57;;
61741;SDS011;47650;49.848;9.620;2022-10-31T08:40:35;39.40;;;6.80;;
61741;SDS011;47650;49.848;9.620;2022-10-31T08:43:11;27.90;;;5.97;;
61741;SDS011;47650;49.848;9.620;2022-10-31T08:45:38;46.05;;;7.20;;
61741;SDS011;47650;49.848;9.620;2022-10-31T08:48:05;20.00;;;6.90;;
61741;SDS011;47650;49.848;9.620;2022-10-31T08:50:32;27.35;;;6.93;;
61741;SDS011;47650;49.848;9.620;2022-10-31T08:53:02;19.50;;;7.40;;
61741;SDS011;47650;49.848;9.620;2022-10-31T08:55:32;19.52;;;7.13;;
61741;SDS011;47650;49.848;9.620;2022-10-31T08:57:59;24.88;;;7.40;;
61741;SDS011;47650;49.848;9.620;2022-10-31T09:00:25;20.80;;;7.55;;
61741;SDS011;47650;49.848;9.620;2022-10-31T09:02:59;16.83;;;7.22;;
61741;SDS011;47650;49.848;9.620;2022-10-31T09:05:35;24.23;;;7.85;;
61741;SDS011;47650;49.848;9.620;2022-10-31T09:08:01;21.80;;;8.00;;
61741;SDS011;47650;49.848;9.620;2022-10-31T09:10:29;49.28;;;9.45;;
61741;SDS011;47650;49.848;9.620;2022-10-31T09:15:23;22.58;;;8.82;;
61741;SDS011;47650;49.848;9.620;2022-10-31T09:17:49;33.95;;;10.07;;
61741;SDS011;47650;49.848;9.620;2022-10-31T09:20:15;42.90;;;10.27;;
61741;SDS011;47650;49.848;9.620;2022-10-31T09:22:40;21.27;;;11.07;;
61741;SDS011;47650;49.848;9.620;2022-10-31T09:25:06;38.28;;;11.68;;
61741;SDS011;47650;49.848;9.620;2022-10-31T09:27:32;24.83;;;10.52;;
61741;SDS011;47650;49.848;9.620;2022-10-31T09:29:57;40.03;;;11.95;;
61741;SDS011;47650;49.848;9.620;2022-10-31T09:32:24;44.38;;;11.15;;
61741;SDS011;47650;49.848;9.620;2022-10-31T09:34:49;34.58;;;12.00;;
61741;SDS011;47650;49.848;9.620;2022-10-31T09:37:14;31.55;;;12.27;;
61741;SDS011;47650;49.848;9.620;2022-10-31T09:39:41;52.13;;;11.25;;
61741;SDS011;47650;49.848;9.620;2022-10-31T09:45:00;29.42;;;11.63;;
61741;SDS011;47650;49.848;9.620;2022-10-31T09:53:28;20.20;;;11.43;;
61741;SDS011;47650;49.848;9.620;2022-10-31T09:56:07;21.15;;;12.80;;
61741;SDS011;47650;49.848;9.620;2022-10-31T09:58:40;20.55;;;12.63;;
61741;SDS011;47650;49.848;9.620;2022-10-31T10:04:53;23.02;;;12.80;;
61741;SDS011;47650;49.848;9.620;2022-10-31T10:06:56;45.60;;;28.52;;
61741;SDS011;47650;49.848;9.620;2022-10-31T10:09:25;28.35;;;14.98;;
61741;SDS011;47650;49.848;9.620;2022-10-31T10:18:00;39.47;;;14.45;;
61741;SDS011;47650;49.848;9.620;2022-10-31T10:26:59;19.50;;;13.35;;
61741;SDS011;47650;49.848;9.620;2022-10-31T10:29:43;24.73;;;17.95;;
61741;SDS011;47650;49.848;9.620;2022-10-31T10:32:20;23.58;;;17.65;;
61741;SDS011;47650;49.848;9.620;2022-10-31T10:35:11;22.55;;;15.80;;
61741;SDS011;47650;49.848;9.620;2022-10-31T10:37:46;21.27;;;16.42;;
61741;SDS011;47650;49.848;9.620;2022-10-31T10:40:21;65.07;;;43.60;;
61741;SDS011;47650;49.848;9.620;2022-10-31T10:43:04;49.25;;;34.38;;
61741;SDS011;47650;49.848;9.620;2022-10-31T10:57:14;21.92;;;19.33;;
61741;SDS011;47650;49.848;9.620;2022-10-31T10:59:45;65.32;;;52.38;;
61741;SDS011;47650;49.848;9.620;2022-10-31T11:02:17;31.65;;;24.17;;
61741;SDS011;47650;49.848;9.620;2022-10-31T11:04:43;29.92;;;26.55;;
61741;SDS011;47650;49.848;9.620;2022-10-31T11:07:12;21.50;;;17.45;;
61741;SDS011;47650;49.848;9.620;2022-10-31T11:09:37;21.65;;;17.98;;
61741;SDS011;47650;49.848;9.620;2022-10-31T11:12:09;23.55;;;17.70;;
61741;SDS011;47650;49.848;9.620;2022-10-31T11:14:55;35.42;;;18.45;;
61741;SDS011;47650;49.848;9.620;2022-10-31T11:20:02;24.60;;;18.58;;
61741;SDS011;47650;49.848;9.620;2022-10-31T11:22:29;24.80;;;18.23;;
61741;SDS011;47650;49.848;9.620;2022-10-31T11:24:55;24.80;;;22.15;;
61741;SDS011;47650;49.848;9.620;2022-10-31T11:27:21;23.80;;;21.27;;
61741;SDS011;47650;49.848;9.620;2022-10-31T11:29:49;24.48;;;21.67;;
61741;SDS011;47650;49.848;9.620;2022-10-31T11:32:19;25.10;;;20.10;;
61741;SDS011;47650;49.848;9.620;2022-10-31T11:34:47;26.30;;;20.27;;
61741;SDS011;47650;49.848;9.620;2022-10-31T11:37:20;25.35;;;21.27;;
61741;SDS011;47650;49.848;9.620;2022-10-31T11:39:50;26.83;;;20.98;;
61741;SDS011;47650;49.848;9.620;2022-10-31T11:42:20;24.83;;;20.45;;
61741;SDS011;47650;49.848;9.620;2022-10-31T11:44:48;23.35;;;19.80;;
61741;SDS011;47650;49.848;9.620;2022-10-31T11:47:15;25.75;;;20.20;;
61741;SDS011;47650;49.848;9.620;2022-10-31T11:49:43;24.77;;;19.88;;
61741;SDS011;47650;49.848;9.620;2022-10-31T11:52:20;26.23;;;19.17;;
61741;SDS011;47650;49.848;9.620;2022-10-31T11:54:59;23.92;;;21.38;;
61741;SDS011;47650;49.848;9.620;2022-10-31T11:57:48;22.00;;;19.70;;
61741;SDS011;47650;49.848;9.620;2022-10-31T12:00:23;23.10;;;20.58;;
61741;SDS011;47650;49.848;9.620;2022-10-31T12:06:02;22.50;;;20.10;;
61741;SDS011;47650;49.848;9.620;2022-10-31T12:08:34;24.02;;;21.02;;
61741;SDS011;47650;49.848;9.620;2022-10-31T12:11:04;24.35;;;21.23;;
61741;SDS011;47650;49.848;9.620;2022-10-31T12:13:51;25.73;;;23.05;;
61741;SDS011;47650;49.848;9.620;2022-10-31T12:19:42;28.90;;;21.75;;
61741;SDS011;47650;49.848;9.620;2022-10-31T12:22:36;26.63;;;22.33;;
61741;SDS011;47650;49.848;9.620;2022-10-31T12:25:31;22.30;;;19.80;;
61741;SDS011;47650;49.848;9.620;2022-10-31T12:36:29;20.05;;;17.90;;
61741;SDS011;47650;49.848;9.620;2022-10-31T12:41:45;19.80;;;17.73;;
61741;SDS011;47650;49.848;9.620;2022-10-31T12:49:59;18.20;;;16.40;;
61741;SDS011;47650;49.848;9.620;2022-10-31T13:01:02;18.60;;;14.45;;
61741;SDS011;47650;49.848;9.620;2022-10-31T13:03:38;17.15;;;15.35;;
61741;SDS011;47650;49.848;9.620;2022-10-31T13:06:24;16.27;;;14.65;;
61741;SDS011;47650;49.848;9.620;2022-10-31T13:08:57;16.60;;;13.90;;
61741;SDS011;47650;49.848;9.620;2022-10-31T13:11:46;14.80;;;13.30;;
61741;SDS011;47650;49.848;9.620;2022-10-31T13:14:25;14.45;;;12.95;;
61741;SDS011;47650;49.848;9.620;2022-10-31T13:16:57;18.08;;;13.73;;
61741;SDS011;47650;49.848;9.620;2022-10-31T13:19:28;17.23;;;13.32;;
61741;SDS011;47650;49.848;9.620;2022-10-31T13:22:06;16.58;;;14.05;;
61741;SDS011;47650;49.848;9.620;2022-10-31T13:27:33;15.15;;;13.65;;
61741;SDS011;47650;49.848;9.620;2022-10-31T13:30:13;15.50;;;14.00;;
61741;SDS011;47650;49.848;9.620;2022-10-31T13:35:27;13.68;;;12.27;;
61741;SDS011;47650;49.848;9.620;2022-10-31T13:40:52;13.38;;;11.95;;
61741;SDS011;47650;49.848;9.620;2022-10-31T13:46:22;13.68;;;11.88;;
61741;SDS011;47650;49.848;9.620;2022-10-31T13:48:51;18.05;;;13.20;;
61741;SDS011;47650;49.848;9.620;2022-10-31T13:51:27;17.88;;;12.60;;
61741;SDS011;47650;49.848;9.620;2022-10-31T13:54:21;13.40;;;11.98;;
61741;SDS011;47650;49.848;9.620;2022-10-31T13:56:59;14.85;;;12.20;;
61741;SDS011;47650;49.848;9.620;2022-10-31T13:59:27;15.65;;;12.55;;
61741;SDS011;47650;49.848;9.620;2022-10-31T14:01:58;18.30;;;13.88;;
61741;SDS011;47650;49.848;9.620;2022-10-31T14:07:06;21.60;;;17.25;;
61741;SDS011;47650;49.848;9.620;2022-10-31T14:09:38;23.08;;;16.45;;
61741;SDS011;47650;49.848;9.620;2022-10-31T14:18:02;20.92;;;17.27;;
61741;SDS011;47650;49.848;9.620;2022-10-31T14:20:40;20.70;;;15.40;;
61741;SDS011;47650;49.848;9.620;2022-10-31T14:28:42;19.45;;;15.55;;
61741;SDS011;47650;49.848;9.620;2022-10-31T14:34:00;22.98;;;17.98;;
61741;SDS011;47650;49.848;9.620;2022-10-31T14:36:55;20.85;;;17.83;;
61741;SDS011;47650;49.848;9.620;2022-10-31T14:42:32;22.10;;;16.20;;
61741;SDS011;47650;49.848;9.620;2022-10-31T14:50:47;24.25;;;17.42;;
61741;SDS011;47650;49.848;9.620;2022-10-31T14:53:19;17.90;;;15.77;;
61741;SDS011;47650;49.848;9.620;2022-10-31T14:58:19;20.00;;;16.35;;
61741;SDS011;47650;49.848;9.620;2022-10-31T15:00:47;22.50;;;16.33;;
61741;SDS011;47650;49.848;9.620;2022-10-31T15:03:16;19.63;;;16.02;;
61741;SDS011;47650;49.848;9.620;2022-10-31T15:05:51;19.08;;;16.10;;
61741;SDS011;47650;49.848;9.620;2022-10-31T15:08:32;18.45;;;15.48;;
61741;SDS011;47650;49.848;9.620;2022-10-31T15:10:58;16.67;;;14.88;;
61741;SDS011;47650;49.848;9.620;2022-10-31T15:13:28;19.77;;;15.48;;
61741;SDS011;47650;49.848;9.620;2022-10-31T15:15:54;20.23;;;16.73;;
61741;SDS011;47650;49.848;9.620;2022-10-31T15:18:22;17.80;;;14.77;;
61741;SDS011;47650;49.848;9.620;2022-10-31T15:20:49;19.50;;;15.85;;
61741;SDS011;47650;49.848;9.620;2022-10-31T15:23:19;20.42;;;16.50;;
61741;SDS011;47650;49.848;9.620;2022-10-31T15:26:03;20.02;;;16.80;;
61741;SDS011;47650;49.848;9.620;2022-10-31T15:28:30;18.52;;;16.63;;
61741;SDS011;47650;49.848;9.620;2022-10-31T15:31:00;21.50;;;18.50;;
61741;SDS011;47650;49.848;9.620;2022-10-31T15:33:29;20.88;;;18.50;;
61741;SDS011;47650;49.848;9.620;2022-10-31T15:36:04;20.80;;;18.70;;
61741;SDS011;47650;49.848;9.620;2022-10-31T15:38:30;23.73;;;21.25;;
61741;SDS011;47650;49.848;9.620;2022-10-31T15:40:58;25.02;;;21.33;;
61741;SDS011;47650;49.848;9.620;2022-10-31T15:43:27;21.30;;;19.08;;
61741;SDS011;47650;49.848;9.620;2022-10-31T15:45:57;23.42;;;18.05;;
61741;SDS011;47650;49.848;9.620;2022-10-31T15:48:24;28.33;;;22.25;;
61741;SDS011;47650;49.848;9.620;2022-10-31T15:50:53;37.67;;;25.30;;
61741;SDS011;47650;49.848;9.620;2022-10-31T15:53:22;34.50;;;27.23;;
61741;SDS011;47650;49.848;9.620;2022-10-31T15:55:55;36.70;;;27.65;;
61741;SDS011;47650;49.848;9.620;2022-10-31T15:58:25;34.03;;;25.55;;
61741;SDS011;47650;49.848;9.620;2022-10-31T16:00:56;33.40;;;25.52;;
61741;SDS011;47650;49.848;9.620;2022-10-31T16:03:25;34.22;;;27.50;;
61741;SDS011;47650;49.848;9.620;2022-10-31T16:05:57;36.45;;;27.52;;
61741;SDS011;47650;49.848;9.620;2022-10-31T16:11:00;46.42;;;33.85;;
61741;SDS011;47650;49.848;9.620;2022-10-31T16:13:52;36.85;;;28.83;;
61741;SDS011;47650;49.848;9.620;2022-10-31T16:16:19;47.58;;;40.75;;
61741;SDS011;47650;49.848;9.620;2022-10-31T16:18:46;37.05;;;30.58;;
61741;SDS011;47650;49.848;9.620;2022-10-31T16:21:13;33.22;;;27.52;;
61741;SDS011;47650;49.848;9.620;2022-10-31T16:23:43;41.60;;;31.15;;
61741;SDS011;47650;49.848;9.620;2022-10-31T16:26:12;45.85;;;30.90;;
61741;SDS011;47650;49.848;9.620;2022-10-31T16:28:49;52.08;;;43.30;;
61741;SDS011;47650;49.848;9.620;2022-10-31T16:31:24;43.75;;;37.70;;
61741;SDS011;47650;49.848;9.620;2022-10-31T16:34:00;40.42;;;33.40;;
61741;SDS011;47650;49.848;9.620;2022-10-31T16:36:35;52.33;;;34.80;;
61741;SDS011;47650;49.848;9.620;2022-10-31T16:39:05;36.40;;;27.73;;
61741;SDS011;47650;49.848;9.620;2022-10-31T16:41:31;34.25;;;27.85;;
61741;SDS011;47650;49.848;9.620;2022-10-31T16:44:06;38.03;;;28.70;;
61741;SDS011;47650;49.848;9.620;2022-10-31T16:46:41;34.22;;;27.85;;
61741;SDS011;47650;49.848;9.620;2022-10-31T16:49:10;50.80;;;32.28;;
61741;SDS011;47650;49.848;9.620;2022-10-31T16:51:36;55.17;;;34.30;;
61741;SDS011;47650;49.848;9.620;2022-10-31T16:54:02;84.63;;;42.60;;
61741;SDS011;47650;49.848;9.620;2022-10-31T16:56:33;81.13;;;46.72;;